Truckee Tahoe Airport
KTRK : now visible

Airfield :











YOU CAN JOIN US ON...

 
LOGIN :

Register | Disclaimer

   EN    FR    IT 

 









Legend :    VFR   Marginal VFR   IFR   Intensive IFR   Very Intensive IFR
Visi :
Ceiling :
>= 8 km
>= 3000ft
5 to 8 km
1000 to 3000 ft
1500m to 5 km
500 to 1000 ft
800 to 1500m
200 to 500 ft
< 800m
< 200 ft
Symbols :   Thunderstorms  Fog  Heavy snow  Heavy precipitations  Wind > 20 kt






- Airport Elevation : 5900 ft


KTRK - Truckee Tahoe

CURRENT METAR :
  • 121745Z 19008G16KT 10SM SCT036 08/01 A3031

EXPIRED METARs :
  • 121645Z 00000KT 10SM FEW045 SCT065 07/02 A3028
  • 121555Z 22005G09KT 10SM BKN028 BKN034 06/03 A3027

TAF KTRK
Valid from the 12 at 18:00 until the 13 at 18:00 UTC


121726Z 1218/1318 19005KT P6SM SCT035 BKN070 WS020/26035KT
FM121900 22013G25KT P6SM VCSH SCT035 BKN080 WS020/26040KT
FM130200 20006KT P6SM VCSH SCT045 BKN070 WS020/26045KT
FM131000 21012KT P6SM VCSH SCT020 BKN035 OVC050



MET'MAP, your aeronautical weather chart ! - Copyright ORBIFLY December 2007 - Disclaimer

ORBIFLY MET'MAP TEAM :

Programming & Development : Alexandra Zaïnal
Concept & original design : Baudouin d'Aumeries
Assistance for programming : Marc-Olivier Méhu
Technical & hardware support : Manuel Goepfert

Contact : metmap@orbifly.com




SOURCES & CREDITS :

   NOAA       Earth
Advisory